Airfield :
LOGIN :

Register | Disclaimer

   EN    FR    IT 

 










Legend :    VFR   Marginal VFR   IFR   Intensive IFR   Very Intensive IFR
Visi :
Ceiling :
>= 8 km
>= 3000ft
5 to 8 km
1000 to 3000 ft
1500m to 5 km
500 to 1000 ft
800 to 1500m
200 to 500 ft
< 800m
< 200 ft
Symbols :   Thunderstorms  Fog  Heavy snow  Heavy precipitations  Wind > 20 kt
SIGMETs :     Misc.  Thunderstorms  Icing  Turbulence  Mountain Waves  Volcanic Ashes






- Airport Elevation : 92 ft


EGXZ - RAP Topcliffe

CURRENT METAR :
  • 242350Z AUTO 20011KT 9999 FEW035/// 17/14 Q1011

EXPIRED METARs :
  • 242320Z AUTO 20010KT 9999 BKN037/// SCT061/// 17/14 Q1012
  • 242250Z AUTO 21011KT 9999 BKN035/// SCT069/// 17/14 Q1012
  • 242220Z AUTO 17007KT 9999 OVC018/// 17/14 Q1013
  • 242150Z AUTO 18006KT 9999 OVC017/// 17/14 Q1012
  • 242120Z AUTO 18006KT 9999 OVC020/// 17/14 Q1013
  • 242050Z AUTO 20010KT 9999 // OVC022/// 17/13 Q1013
  • 242020Z AUTO 20009KT 9999 // BKN023/// SCT034/// 18/13 Q1013
  • 241950Z AUTO 21004KT 9999 FEW026/// BKN042/// 18/14 Q1014
  • 241920Z AUTO 25006KT 9999 FEW022/// BKN033/// 18/14 Q1014

Expired Forecast.



MET'MAP, your aeronautical weather chart ! - Copyright ORBIFLY December 2007 - Disclaimer

ORBIFLY MET'MAP TEAM :

Programming & Development : Alexandra Zaïnal
Original concept : Baudouin d'Aumeries
Technical & hardware support : Manuel Goepfert
Assistance : Marc-Olivier Méhu




SOURCES & CREDITS :

   NOAA